createdAt,value
2017-10-30T00:00:31.301Z,0
2017-10-30T00:01:31.269Z,0
2017-10-30T00:02:31.246Z,0
2017-10-30T00:03:31.246Z,0
2017-10-30T00:04:31.193Z,0
2017-10-30T00:05:31.164Z,0
2017-10-30T00:06:31.137Z,0
2017-10-30T00:07:31.114Z,0
2017-10-30T00:08:31.091Z,0
2017-10-30T00:09:31.414Z,0
2017-10-30T00:10:30.417Z,0
2017-10-30T00:11:30.711Z,0
2017-10-30T00:12:30.670Z,0
2017-10-30T00:13:30.978Z,0
2017-10-30T00:14:30.619Z,0
2017-10-30T00:15:30.914Z,0
2017-10-30T00:16:30.570Z,0
2017-10-30T00:17:30.875Z,0
2017-10-30T00:18:30.844Z,0
2017-10-30T00:19:30.806Z,0
2017-10-30T00:20:30.475Z,0
2017-10-30T00:21:30.768Z,0
2017-10-30T00:22:30.732Z,0
2017-10-30T00:23:30.386Z,0
2017-10-30T00:24:30.367Z,0
2017-10-30T00:25:30.659Z,0
2017-10-30T00:26:30.654Z,0
2017-10-30T00:27:30.606Z,0
2017-10-30T00:28:30.581Z,0
2017-10-30T00:29:30.554Z,0
2017-10-30T00:30:30.213Z,0
2017-10-30T00:31:30.193Z,0
2017-10-30T00:32:30.168Z,0
2017-10-30T00:33:30.460Z,0
2017-10-30T00:34:30.436Z,0
2017-10-30T00:35:30.417Z,0
2017-10-30T00:36:30.380Z,0
2017-10-30T00:37:30.044Z,0
2017-10-30T00:38:30.336Z,0
2017-10-30T00:39:30.307Z,0
2017-10-30T00:40:30.285Z,0
2017-10-30T00:41:29.941Z,0
2017-10-30T00:42:30.246Z,0
2017-10-30T00:43:29.890Z,0
2017-10-30T00:44:30.184Z,0
2017-10-30T00:45:30.166Z,0
2017-10-30T00:46:30.135Z,0
2017-10-30T00:47:30.112Z,0
2017-10-30T00:48:29.765Z,0
2017-10-30T00:49:30.083Z,0
2017-10-30T00:50:29.714Z,0
2017-10-30T00:51:30.014Z,0
2017-10-30T00:52:29.981Z,0
2017-10-30T00:53:29.978Z,0
2017-10-30T00:54:29.929Z,0
2017-10-30T00:55:29.590Z,0
2017-10-30T00:56:29.561Z,0
2017-10-30T00:57:29.534Z,0
2017-10-30T00:58:29.853Z,0
2017-10-30T00:59:29.810Z,0
2017-10-30T01:00:29.823Z,0
2017-10-30T01:01:29.751Z,0
2017-10-30T01:02:29.728Z,0
2017-10-30T01:03:29.717Z,0
2017-10-30T01:04:29.676Z,0
2017-10-30T01:05:29.645Z,0
2017-10-30T01:06:29.647Z,0
2017-10-30T01:07:29.596Z,0
2017-10-30T01:08:29.246Z,0
2017-10-30T01:09:29.540Z,0
2017-10-30T01:10:29.548Z,0
2017-10-30T01:11:29.183Z,0
2017-10-30T01:12:29.462Z,0
2017-10-30T01:13:29.447Z,0
2017-10-30T01:14:29.433Z,0
2017-10-30T01:15:29.078Z,0
2017-10-30T01:16:29.149Z,0
2017-10-30T01:17:29.344Z,0
2017-10-30T01:18:29.319Z,0
2017-10-30T01:19:28.395Z,0
2017-10-30T01:20:28.686Z,0
2017-10-30T01:21:29.255Z,0
2017-10-30T01:22:28.914Z,0
2017-10-30T01:23:29.201Z,0
2017-10-30T01:24:29.167Z,0
2017-10-30T01:25:29.152Z,0
2017-10-30T01:26:29.117Z,0
2017-10-30T01:27:29.129Z,0
2017-10-30T01:28:29.419Z,0
2017-10-30T01:29:28.728Z,0
2017-10-30T01:30:29.025Z,0
2017-10-30T01:31:28.999Z,0
2017-10-30T01:32:28.968Z,0
2017-10-30T01:33:28.953Z,0
2017-10-30T01:34:28.923Z,0
2017-10-30T01:35:28.895Z,0
2017-10-30T01:36:28.875Z,0
2017-10-30T01:37:28.834Z,0
2017-10-30T01:38:28.814Z,0
2017-10-30T01:39:28.786Z,0
2017-10-30T01:40:28.782Z,0
2017-10-30T01:41:28.429Z,0
2017-10-30T01:42:28.721Z,0
2017-10-30T01:43:28.690Z,0
2017-10-30T01:44:28.670Z,0
2017-10-30T01:45:28.632Z,0
2017-10-30T01:46:28.616Z,0
2017-10-30T01:47:28.585Z,0
2017-10-30T01:48:28.571Z,0
2017-10-30T01:49:28.537Z,0
2017-10-30T01:50:28.521Z,0
2017-10-30T01:51:28.486Z,0
2017-10-30T01:52:28.465Z,0
2017-10-30T01:53:28.451Z,0
2017-10-30T01:54:27.771Z,0
2017-10-30T01:55:28.394Z,0
2017-10-30T01:56:28.366Z,0
2017-10-30T01:57:28.343Z,0
2017-10-30T01:58:28.325Z,0
2017-10-30T01:59:28.288Z,0
2017-10-30T02:00:28.260Z,0
2017-10-30T02:01:28.241Z,0
2017-10-30T02:02:28.209Z,0
2017-10-30T02:03:28.196Z,0
2017-10-30T02:04:28.172Z,0
2017-10-30T02:05:28.130Z,0
2017-10-30T02:06:28.112Z,0
2017-10-30T02:07:28.091Z,0
2017-10-30T02:08:28.053Z,0
2017-10-30T02:09:28.039Z,0
2017-10-30T02:10:27.699Z,0
2017-10-30T02:11:27.989Z,0
2017-10-30T02:12:28.305Z,0
2017-10-30T02:13:27.602Z,0
2017-10-30T02:14:27.909Z,0
2017-10-30T02:15:27.886Z,0
2017-10-30T02:16:27.848Z,0
2017-10-30T02:17:27.830Z,0
2017-10-30T02:18:27.798Z,0
2017-10-30T02:19:27.777Z,0
2017-10-30T02:20:27.749Z,0
2017-10-30T02:21:27.726Z,0
2017-10-30T02:22:27.715Z,0
2017-10-30T02:23:27.687Z,0
2017-10-30T02:24:27.652Z,0
2017-10-30T02:25:27.627Z,0
2017-10-30T02:26:27.283Z,0
2017-10-30T02:27:27.258Z,0
2017-10-30T02:28:27.553Z,0
2017-10-30T02:29:27.524Z,0
2017-10-30T02:30:27.515Z,0
2017-10-30T02:31:27.471Z,0
2017-10-30T02:32:27.475Z,0
2017-10-30T02:33:27.423Z,0
2017-10-30T02:34:27.395Z,0
2017-10-30T02:35:27.383Z,0
2017-10-30T02:36:27.352Z,0
2017-10-30T02:37:27.335Z,0
2017-10-30T02:38:27.303Z,0
2017-10-30T02:39:27.277Z,0
2017-10-30T02:40:27.257Z,0
2017-10-30T02:41:27.232Z,0
2017-10-30T02:42:27.206Z,0
2017-10-30T02:43:27.183Z,0
2017-10-30T02:44:27.156Z,0
2017-10-30T02:45:27.122Z,0
2017-10-30T02:46:27.098Z,0
2017-10-30T02:47:27.076Z,0
2017-10-30T02:48:27.060Z,0
2017-10-30T02:49:26.718Z,0
2017-10-30T02:50:26.995Z,0
2017-10-30T02:51:26.987Z,0
2017-10-30T02:52:26.964Z,0
2017-10-30T02:53:26.936Z,0
2017-10-30T02:54:26.902Z,0
2017-10-30T02:55:26.554Z,0
2017-10-30T02:56:26.857Z,0
2017-10-30T02:57:26.843Z,0
2017-10-30T02:58:26.785Z,0
2017-10-30T02:59:26.774Z,0
2017-10-30T03:00:26.429Z,0
2017-10-30T03:01:26.719Z,0
2017-10-30T03:02:26.692Z,0
2017-10-30T03:03:26.677Z,0
2017-10-30T03:04:26.653Z,0
2017-10-30T03:05:26.621Z,0
2017-10-30T03:06:26.593Z,0
2017-10-30T03:07:26.568Z,0
2017-10-30T03:08:26.551Z,0
2017-10-30T03:09:26.197Z,0
2017-10-30T03:10:26.492Z,0
2017-10-30T03:11:26.463Z,0
2017-10-30T03:12:26.432Z,0
2017-10-30T03:13:26.090Z,0
2017-10-30T03:14:26.386Z,0
2017-10-30T03:15:26.048Z,0
2017-10-30T03:16:26.340Z,0
2017-10-30T03:17:26.329Z,0
2017-10-30T03:18:26.300Z,0
2017-10-30T03:19:26.266Z,0
2017-10-30T03:20:26.245Z,0
2017-10-30T03:21:26.231Z,0
2017-10-30T03:22:26.194Z,0
2017-10-30T03:23:26.156Z,0
2017-10-30T03:24:26.132Z,0
2017-10-30T03:25:26.111Z,0
2017-10-30T03:26:26.093Z,0
2017-10-30T03:27:26.070Z,0
2017-10-30T03:28:26.034Z,0
2017-10-30T03:29:26.009Z,0
2017-10-30T03:30:26.015Z,0
2017-10-30T03:31:25.989Z,0
2017-10-30T03:32:25.933Z,0
2017-10-30T03:33:25.903Z,0
2017-10-30T03:34:25.885Z,0
2017-10-30T03:35:25.876Z,0
2017-10-30T03:36:25.834Z,0
2017-10-30T03:37:25.804Z,0
2017-10-30T03:38:25.460Z,0
2017-10-30T03:39:25.439Z,0
2017-10-30T03:40:25.731Z,0
2017-10-30T03:41:25.718Z,0
2017-10-30T03:42:25.359Z,0
2017-10-30T03:43:25.664Z,0
2017-10-30T03:44:25.631Z,0
2017-10-30T03:45:25.968Z,0
2017-10-30T03:46:25.583Z,0
2017-10-30T03:47:25.559Z,0
2017-10-30T03:48:25.524Z,0
2017-10-30T03:49:25.499Z,0
2017-10-30T03:50:25.485Z,0
2017-10-30T03:51:25.134Z,0
2017-10-30T03:52:25.431Z,0
2017-10-30T03:53:25.400Z,0
2017-10-30T03:54:25.382Z,0
2017-10-30T03:55:25.043Z,0
2017-10-30T03:56:25.325Z,0
2017-10-30T03:57:25.306Z,0
2017-10-30T03:58:24.959Z,0
2017-10-30T03:59:25.254Z,0
2017-10-30T04:00:25.226Z,0
2017-10-30T04:01:24.912Z,0
2017-10-30T04:02:25.180Z,0
2017-10-30T04:03:25.152Z,0
2017-10-30T04:04:24.806Z,0
2017-10-30T04:05:25.103Z,0
2017-10-30T04:06:25.070Z,0
2017-10-30T04:07:25.045Z,0
2017-10-30T04:08:25.020Z,0
2017-10-30T04:09:24.996Z,0
2017-10-30T04:10:24.971Z,0
2017-10-30T04:11:24.946Z,0
2017-10-30T04:12:24.939Z,0
2017-10-30T04:13:24.896Z,0
2017-10-30T04:14:24.894Z,0
2017-10-30T04:15:24.851Z,0
2017-10-30T04:16:24.818Z,0
2017-10-30T04:17:24.472Z,0
2017-10-30T04:18:24.769Z,0
2017-10-30T04:19:24.741Z,0
2017-10-30T04:20:24.715Z,0
2017-10-30T04:21:24.706Z,0
2017-10-30T04:22:24.665Z,0
2017-10-30T04:23:24.651Z,0
2017-10-30T04:24:24.620Z,0
2017-10-30T04:25:24.595Z,0
2017-10-30T04:26:24.565Z,0
2017-10-30T04:27:24.545Z,0
2017-10-30T04:28:24.561Z,0
2017-10-30T04:29:24.491Z,0
2017-10-30T04:30:24.153Z,0
2017-10-30T04:31:24.445Z,0
2017-10-30T04:32:24.417Z,0
2017-10-30T04:33:24.409Z,0
2017-10-30T04:34:24.406Z,0
2017-10-30T04:35:24.043Z,0
2017-10-30T04:36:24.322Z,0
2017-10-30T04:37:24.292Z,0
2017-10-30T04:38:24.269Z,0
2017-10-30T04:39:23.927Z,0
2017-10-30T04:40:23.902Z,0
2017-10-30T04:41:24.204Z,0
2017-10-30T04:42:24.168Z,0
2017-10-30T04:43:24.147Z,0
2017-10-30T04:44:23.486Z,0
2017-10-30T04:45:23.773Z,0
2017-10-30T04:46:24.063Z,0
2017-10-30T04:47:24.049Z,0
2017-10-30T04:48:23.700Z,0
2017-10-30T04:49:23.997Z,0
2017-10-30T04:50:24.023Z,0
2017-10-30T04:51:23.625Z,0
2017-10-30T04:52:23.605Z,0
2017-10-30T04:53:23.895Z,0
2017-10-30T04:54:23.568Z,0
2017-10-30T04:55:23.845Z,0
2017-10-30T04:56:23.873Z,0
2017-10-30T04:57:23.800Z,0
2017-10-30T04:58:23.771Z,0
2017-10-30T04:59:23.738Z,0
2017-10-30T05:00:23.419Z,0
2017-10-30T05:01:23.696Z,0
2017-10-30T05:02:23.672Z,0
2017-10-30T05:03:23.650Z,0
2017-10-30T05:04:23.618Z,0
2017-10-30T05:05:23.594Z,0
2017-10-30T05:06:23.574Z,0
2017-10-30T05:07:23.567Z,0
2017-10-30T05:08:23.199Z,0
2017-10-30T05:09:23.509Z,0
2017-10-30T05:10:23.478Z,0
2017-10-30T05:11:23.115Z,0
2017-10-30T05:12:23.764Z,0
2017-10-30T05:13:23.394Z,0
2017-10-30T05:14:23.368Z,0
2017-10-30T05:15:23.022Z,0
2017-10-30T05:16:23.315Z,0
2017-10-30T05:17:23.317Z,0
2017-10-30T05:18:22.943Z,0
2017-10-30T05:19:23.240Z,0
2017-10-30T05:20:22.892Z,0
2017-10-30T05:21:23.227Z,0
2017-10-30T05:22:23.170Z,0
2017-10-30T05:23:23.144Z,0
2017-10-30T05:24:23.124Z,0
2017-10-30T05:25:23.104Z,0
2017-10-30T05:26:23.078Z,0
2017-10-30T05:27:22.726Z,0
2017-10-30T05:28:23.019Z,0
2017-10-30T05:29:22.991Z,0
2017-10-30T05:30:22.979Z,0
2017-10-30T05:31:22.614Z,0
2017-10-30T05:32:22.919Z,0
2017-10-30T05:33:22.887Z,0
2017-10-30T05:34:22.867Z,0
2017-10-30T05:35:22.842Z,0
2017-10-30T05:36:22.811Z,0
2017-10-30T05:37:22.786Z,0
2017-10-30T05:38:22.767Z,0
2017-10-30T05:39:22.786Z,0
2017-10-30T05:40:22.716Z,0
2017-10-30T05:41:22.684Z,0
2017-10-30T05:42:22.356Z,0
2017-10-30T05:43:22.658Z,0
2017-10-30T05:44:22.613Z,0
2017-10-30T05:45:22.583Z,0
2017-10-30T05:46:22.559Z,0
2017-10-30T05:47:22.534Z,0
2017-10-30T05:48:22.511Z,4
2017-10-30T05:49:22.488Z,0
2017-10-30T05:50:22.484Z,4
2017-10-30T05:51:22.436Z,0
2017-10-30T05:52:22.411Z,4
2017-10-30T05:53:21.746Z,4
2017-10-30T05:54:22.362Z,4
2017-10-30T05:55:22.338Z,8
2017-10-30T05:56:22.312Z,12
2017-10-30T05:57:22.285Z,12
2017-10-30T05:58:22.258Z,12
2017-10-30T05:59:22.242Z,20
2017-10-30T06:00:22.205Z,24
2017-10-30T06:01:22.189Z,24
2017-10-30T06:02:22.163Z,28
2017-10-30T06:03:22.135Z,32
2017-10-30T06:04:21.787Z,40
2017-10-30T06:05:22.088Z,48
2017-10-30T06:06:22.065Z,56
2017-10-30T06:07:22.036Z,64
2017-10-30T06:08:22.007Z,72
2017-10-30T06:09:21.986Z,84
2017-10-30T06:10:21.959Z,96
2017-10-30T06:11:21.932Z,104
2017-10-30T06:12:21.909Z,112
2017-10-30T06:13:21.887Z,128
2017-10-30T06:14:21.868Z,140
2017-10-30T06:15:21.831Z,156
2017-10-30T06:16:21.812Z,176
2017-10-30T06:17:21.792Z,196
2017-10-30T06:18:21.750Z,204
2017-10-30T06:19:21.733Z,208
2017-10-30T06:20:21.720Z,204
2017-10-30T06:21:21.690Z,200
2017-10-30T06:22:21.657Z,204
2017-10-30T06:23:21.629Z,204
2017-10-30T06:24:21.602Z,208
2017-10-30T06:25:21.272Z,220
2017-10-30T06:26:21.548Z,240
2017-10-30T06:27:21.534Z,264
2017-10-30T06:28:21.509Z,284
2017-10-30T06:29:21.486Z,300
2017-10-30T06:30:21.464Z,316
2017-10-30T06:31:21.428Z,340
2017-10-30T06:32:21.402Z,372
2017-10-30T06:33:21.377Z,404
2017-10-30T06:34:21.358Z,428
2017-10-30T06:35:21.007Z,452
2017-10-30T06:36:21.303Z,496
2017-10-30T06:37:21.301Z,552
2017-10-30T06:38:20.939Z,588
2017-10-30T06:39:20.905Z,600
2017-10-30T06:40:20.882Z,608
2017-10-30T06:41:20.875Z,608
2017-10-30T06:42:21.156Z,600
2017-10-30T06:43:21.121Z,600
2017-10-30T06:44:21.108Z,604
2017-10-30T06:45:21.074Z,632
2017-10-30T06:46:21.050Z,672
2017-10-30T06:47:21.026Z,700
2017-10-30T06:48:21.002Z,740
2017-10-30T06:49:20.991Z,796
2017-10-30T06:50:20.957Z,856
2017-10-30T06:51:20.914Z,924
2017-10-30T06:52:20.905Z,988
2017-10-30T06:53:20.869Z,1028
2017-10-30T06:54:20.855Z,1108
2017-10-30T06:55:20.830Z,1188
2017-10-30T06:56:20.493Z,1252
2017-10-30T06:57:20.790Z,1308
2017-10-30T06:58:21.100Z,1340
2017-10-30T06:59:20.409Z,1372
2017-10-30T07:00:20.702Z,1384
2017-10-30T07:01:20.680Z,1432
2017-10-30T07:02:20.338Z,1556
2017-10-30T07:03:20.632Z,1692
2017-10-30T07:04:20.295Z,1744
2017-10-30T07:05:20.579Z,1704
2017-10-30T07:06:20.562Z,1684
2017-10-30T07:07:20.524Z,1804
2017-10-30T07:08:20.508Z,2104
2017-10-30T07:09:20.505Z,2272
2017-10-30T07:10:20.453Z,2180
2017-10-30T07:11:20.427Z,2116
2017-10-30T07:12:20.084Z,2140
2017-10-30T07:13:20.373Z,2108
2017-10-30T07:14:20.344Z,2020
2017-10-30T07:15:20.333Z,1940
2017-10-30T07:16:20.293Z,1964
2017-10-30T07:17:19.955Z,2088
2017-10-30T07:18:20.246Z,2212
2017-10-30T07:19:20.242Z,2284
2017-10-30T07:20:19.882Z,2368
2017-10-30T07:21:20.177Z,2616
2017-10-30T07:22:20.156Z,2788
2017-10-30T07:23:20.136Z,2760
2017-10-30T07:24:19.785Z,2716
2017-10-30T07:25:20.088Z,2740
2017-10-30T07:26:20.070Z,2868
2017-10-30T07:27:19.712Z,3036
2017-10-30T07:28:19.996Z,3200
2017-10-30T07:29:19.978Z,3380
2017-10-30T07:30:19.967Z,3364
2017-10-30T07:31:19.931Z,3376
2017-10-30T07:32:19.911Z,3448
2017-10-30T07:33:19.886Z,3624
2017-10-30T07:34:19.861Z,3832
2017-10-30T07:35:19.828Z,3980
2017-10-30T07:36:19.809Z,4144
2017-10-30T07:37:19.787Z,4408
2017-10-30T07:38:19.443Z,4628
2017-10-30T07:39:19.731Z,4916
2017-10-30T07:40:19.712Z,5748
2017-10-30T07:41:19.688Z,4840
2017-10-30T07:42:19.655Z,4364
2017-10-30T07:43:19.650Z,4228
2017-10-30T07:44:19.620Z,4296
2017-10-30T07:45:19.596Z,4364
2017-10-30T07:46:19.238Z,4388
2017-10-30T07:47:19.541Z,4168
2017-10-30T07:48:19.524Z,4064
2017-10-30T07:49:19.487Z,4300
2017-10-30T07:50:19.473Z,4060
2017-10-30T07:51:19.442Z,3908
2017-10-30T07:52:19.421Z,3904
2017-10-30T07:53:19.444Z,3980
2017-10-30T07:54:19.363Z,4112
2017-10-30T07:55:19.353Z,4332
2017-10-30T07:56:19.330Z,4632
2017-10-30T07:57:19.299Z,4880
2017-10-30T07:58:19.266Z,5160
2017-10-30T07:59:19.254Z,5652
2017-10-30T08:00:18.907Z,6516
2017-10-30T08:01:18.878Z,8080
2017-10-30T08:02:19.183Z,13960
2017-10-30T08:03:19.162Z,14088
2017-10-30T08:04:19.127Z,13412
2017-10-30T08:05:18.790Z,12764
2017-10-30T08:06:19.090Z,12292
2017-10-30T08:07:18.740Z,11860
2017-10-30T08:08:19.038Z,10164
2017-10-30T08:09:19.054Z,8140
2017-10-30T08:10:18.990Z,7468
2017-10-30T08:11:18.653Z,7548
2017-10-30T08:12:18.630Z,7172
2017-10-30T08:13:18.930Z,7228
2017-10-30T08:14:18.902Z,7592
2017-10-30T08:15:18.886Z,8048
2017-10-30T08:16:18.857Z,8552
2017-10-30T08:17:18.844Z,8752
2017-10-30T08:18:18.815Z,8288
2017-10-30T08:19:18.784Z,7456
2017-10-30T08:20:18.765Z,6868
2017-10-30T08:21:18.418Z,6828
2017-10-30T08:22:18.401Z,6960
2017-10-30T08:23:18.699Z,7084
2017-10-30T08:24:18.678Z,7140
2017-10-30T08:25:18.652Z,7108
2017-10-30T08:26:18.642Z,6956
2017-10-30T08:27:18.603Z,6684
2017-10-30T08:28:18.586Z,6532
2017-10-30T08:29:18.567Z,6576
2017-10-30T08:30:18.537Z,6512
2017-10-30T08:31:18.510Z,6164
2017-10-30T08:32:18.507Z,5660
2017-10-30T08:33:18.467Z,5280
2017-10-30T08:34:18.445Z,5052
2017-10-30T08:35:18.419Z,4912
2017-10-30T08:36:18.394Z,4832
2017-10-30T08:37:18.373Z,4988
2017-10-30T08:38:18.361Z,5420
2017-10-30T08:39:18.322Z,5864
2017-10-30T08:40:18.296Z,6296
2017-10-30T08:41:18.276Z,6848
2017-10-30T08:42:18.268Z,7232
2017-10-30T08:43:18.235Z,7196
2017-10-30T08:44:18.204Z,6604
2017-10-30T08:45:18.184Z,6020
2017-10-30T08:46:18.163Z,5700
2017-10-30T08:47:17.822Z,5612
2017-10-30T08:48:18.110Z,5752
2017-10-30T08:49:18.093Z,5924
2017-10-30T08:50:18.101Z,5904
2017-10-30T08:51:17.744Z,5536
2017-10-30T08:52:18.017Z,5096
2017-10-30T08:53:17.676Z,4788
2017-10-30T08:54:17.974Z,4416
2017-10-30T08:55:17.965Z,4188
2017-10-30T08:56:17.924Z,4436
2017-10-30T08:57:17.896Z,5132
2017-10-30T08:58:17.875Z,6644
2017-10-30T08:59:17.556Z,6856
2017-10-30T09:00:17.832Z,7772
2017-10-30T09:01:17.518Z,9236
2017-10-30T09:02:17.784Z,10484
2017-10-30T09:03:17.760Z,11128
2017-10-30T09:04:17.743Z,11100
2017-10-30T09:05:17.093Z,11332
2017-10-30T09:06:17.701Z,10564
2017-10-30T09:07:17.668Z,11568
2017-10-30T09:08:17.645Z,12312
2017-10-30T09:09:17.614Z,12652
2017-10-30T09:10:17.600Z,12868
2017-10-30T09:11:17.569Z,12016
2017-10-30T09:12:17.549Z,10296
2017-10-30T09:13:17.531Z,8556
2017-10-30T09:14:17.195Z,7648
2017-10-30T09:15:17.475Z,7568
2017-10-30T09:16:17.139Z,7600
2017-10-30T09:17:17.659Z,7744
2017-10-30T09:18:17.405Z,7632
2017-10-30T09:19:17.386Z,7096
2017-10-30T09:20:17.040Z,6428
2017-10-30T09:21:17.348Z,5604
2017-10-30T09:22:17.315Z,4968
2017-10-30T09:23:17.295Z,4864
2017-10-30T09:24:16.965Z,5056
2017-10-30T09:25:17.260Z,5212
2017-10-30T09:26:17.228Z,5148
2017-10-30T09:27:17.201Z,5160
2017-10-30T09:28:16.869Z,5472
2017-10-30T09:29:17.147Z,5712
2017-10-30T09:30:17.132Z,5720
2017-10-30T09:31:17.226Z,5408
2017-10-30T09:32:17.078Z,5104
2017-10-30T09:33:17.086Z,4896
2017-10-30T09:34:16.725Z,4908
2017-10-30T09:35:16.694Z,5288
2017-10-30T09:36:16.993Z,6144
2017-10-30T09:37:16.964Z,7980
2017-10-30T09:38:16.952Z,9828
2017-10-30T09:39:16.931Z,10176
2017-10-30T09:40:16.892Z,9780
2017-10-30T09:41:16.872Z,10108
2017-10-30T09:42:16.859Z,10944
2017-10-30T09:43:16.825Z,11432
2017-10-30T09:44:16.809Z,12168
2017-10-30T09:45:16.776Z,13080
2017-10-30T09:46:16.755Z,12904
2017-10-30T09:47:16.749Z,11984
2017-10-30T09:48:16.724Z,11664
2017-10-30T09:49:16.419Z,11660
2017-10-30T09:50:16.670Z,10900
2017-10-30T09:51:16.642Z,10012
2017-10-30T09:52:16.275Z,9468
2017-10-30T09:53:16.593Z,9652
2017-10-30T09:54:16.622Z,10360
2017-10-30T09:55:16.567Z,10812
2017-10-30T09:56:15.590Z,10916
2017-10-30T09:57:16.725Z,10976
2017-10-30T09:58:16.472Z,11064
2017-10-30T09:59:16.456Z,10764
2017-10-30T10:00:16.429Z,10188
2017-10-30T10:01:16.413Z,9816
2017-10-30T10:02:16.399Z,10128
2017-10-30T10:03:16.056Z,10628
2017-10-30T10:04:16.362Z,10576
2017-10-30T10:05:16.324Z,10268
2017-10-30T10:06:16.298Z,9808
2017-10-30T10:07:16.270Z,9348
2017-10-30T10:08:16.249Z,8968
2017-10-30T10:09:16.234Z,9128
2017-10-30T10:10:15.297Z,10224
2017-10-30T10:11:15.621Z,11664
2017-10-30T10:12:16.171Z,11344
2017-10-30T10:13:16.159Z,10228
2017-10-30T10:14:15.793Z,10448
2017-10-30T10:15:16.091Z,11016
2017-10-30T10:16:16.066Z,10844
2017-10-30T10:17:16.097Z,10572
2017-10-30T10:18:16.039Z,10988
2017-10-30T10:19:16.004Z,11416
2017-10-30T10:20:15.987Z,11288
2017-10-30T10:21:15.962Z,10632
2017-10-30T10:22:15.613Z,9900
2017-10-30T10:23:15.912Z,9516
2017-10-30T10:24:15.888Z,9692
2017-10-30T10:25:15.869Z,9952
2017-10-30T10:26:15.522Z,9984
2017-10-30T10:27:15.824Z,9860
2017-10-30T10:28:15.489Z,9680
2017-10-30T10:29:15.460Z,9640
2017-10-30T10:30:15.754Z,9548
2017-10-30T10:31:15.729Z,9140
2017-10-30T10:32:15.724Z,8816
2017-10-30T10:33:15.688Z,8484
2017-10-30T10:34:15.658Z,8116
2017-10-30T10:35:15.638Z,8268
2017-10-30T10:36:15.640Z,8080
2017-10-30T10:37:15.605Z,7180
2017-10-30T10:38:15.566Z,6376
2017-10-30T10:39:15.231Z,5900
2017-10-30T10:40:15.522Z,5052
2017-10-30T10:41:15.494Z,4216
2017-10-30T10:42:15.470Z,4020
2017-10-30T10:43:15.447Z,3836
2017-10-30T10:44:15.430Z,3728
2017-10-30T10:45:15.405Z,3724
2017-10-30T10:46:15.395Z,3716
2017-10-30T10:47:15.359Z,3740
2017-10-30T10:48:15.016Z,3920
2017-10-30T10:49:15.332Z,4164
2017-10-30T10:50:15.287Z,4284
2017-10-30T10:51:15.295Z,4332
2017-10-30T10:52:15.249Z,4160
2017-10-30T10:53:15.218Z,4000
2017-10-30T10:54:15.211Z,3888
2017-10-30T10:55:15.183Z,3856
2017-10-30T10:56:14.831Z,3824
2017-10-30T10:57:15.134Z,3816
2017-10-30T10:58:15.106Z,3804
2017-10-30T10:59:14.775Z,3772
2017-10-30T11:00:14.413Z,3712
2017-10-30T11:01:15.029Z,3696
2017-10-30T11:02:14.699Z,3748
2017-10-30T11:03:14.980Z,3784
2017-10-30T11:04:14.642Z,3860
2017-10-30T11:05:14.948Z,4112
2017-10-30T11:06:14.594Z,4732
2017-10-30T11:07:14.894Z,5416
2017-10-30T11:08:14.869Z,5840
2017-10-30T11:09:14.860Z,6308
2017-10-30T11:10:14.824Z,6792
2017-10-30T11:11:14.799Z,7136
2017-10-30T11:12:14.772Z,7480
2017-10-30T11:13:14.761Z,7592
2017-10-30T11:14:14.725Z,7740
2017-10-30T11:15:14.702Z,7944
2017-10-30T11:16:14.679Z,7992
2017-10-30T11:17:14.654Z,7680
2017-10-30T11:18:14.630Z,7036
2017-10-30T11:19:14.615Z,6512
2017-10-30T11:20:14.584Z,6120
2017-10-30T11:21:14.561Z,6652
2017-10-30T11:22:14.248Z,6388
2017-10-30T11:23:14.207Z,5132
2017-10-30T11:24:14.176Z,4932
2017-10-30T11:25:14.150Z,4700
2017-10-30T11:26:14.462Z,5280
2017-10-30T11:27:13.793Z,5352
2017-10-30T11:28:14.410Z,6180
2017-10-30T11:29:14.379Z,6596
2017-10-30T11:30:14.361Z,7004
2017-10-30T11:31:14.339Z,6380
2017-10-30T11:32:14.311Z,5356
2017-10-30T11:33:14.297Z,4716
2017-10-30T11:34:14.281Z,4608
2017-10-30T11:35:14.240Z,4952
2017-10-30T11:36:14.236Z,5216
2017-10-30T11:37:14.195Z,6204
2017-10-30T11:38:14.181Z,7232
2017-10-30T11:39:13.521Z,6820
2017-10-30T11:40:13.819Z,6140
2017-10-30T11:41:14.108Z,6112
2017-10-30T11:42:14.083Z,6780
2017-10-30T11:43:14.055Z,7112
2017-10-30T11:44:14.029Z,7408
2017-10-30T11:45:14.017Z,7604
2017-10-30T11:46:13.988Z,7640
2017-10-30T11:47:13.962Z,7572
2017-10-30T11:48:13.975Z,7096
2017-10-30T11:49:13.609Z,6764
2017-10-30T11:50:13.916Z,6820
2017-10-30T11:51:13.867Z,7452
2017-10-30T11:52:13.855Z,8172
2017-10-30T11:53:14.174Z,8960
2017-10-30T11:54:13.492Z,9792
2017-10-30T11:55:13.788Z,9668
2017-10-30T11:56:13.772Z,9392
2017-10-30T11:57:13.733Z,9096
2017-10-30T11:58:13.718Z,8808
2017-10-30T11:59:13.690Z,8136
2017-10-30T12:00:13.687Z,7612
2017-10-30T12:01:13.639Z,7556
2017-10-30T12:02:13.316Z,7492
2017-10-30T12:03:13.614Z,7620
2017-10-30T12:04:13.584Z,7996
2017-10-30T12:05:13.553Z,8368
2017-10-30T12:06:13.524Z,8432
2017-10-30T12:07:13.513Z,8328
2017-10-30T12:08:13.172Z,8124
2017-10-30T12:09:13.458Z,7816
2017-10-30T12:10:13.452Z,7300
2017-10-30T12:11:13.428Z,6676
2017-10-30T12:12:13.384Z,6296
2017-10-30T12:13:12.746Z,5588
2017-10-30T12:14:13.368Z,5084
2017-10-30T12:15:13.320Z,4552
2017-10-30T12:16:12.989Z,4080
2017-10-30T12:17:12.953Z,3760
2017-10-30T12:18:12.943Z,3780
2017-10-30T12:19:13.234Z,3760
2017-10-30T12:20:13.209Z,4012
2017-10-30T12:21:13.188Z,4456
2017-10-30T12:22:13.170Z,4664
2017-10-30T12:23:13.151Z,4552
2017-10-30T12:24:13.124Z,4164
2017-10-30T12:25:13.094Z,3708
2017-10-30T12:26:13.423Z,3420
2017-10-30T12:27:13.041Z,3236
2017-10-30T12:28:12.380Z,3132
2017-10-30T12:29:13.013Z,3072
2017-10-30T12:30:13.051Z,3040
2017-10-30T12:31:12.961Z,3020
2017-10-30T12:32:13.053Z,3012
2017-10-30T12:33:12.919Z,3020
2017-10-30T12:34:12.613Z,3048
2017-10-30T12:35:12.571Z,3124
2017-10-30T12:36:12.848Z,3232
2017-10-30T12:37:12.847Z,3312
2017-10-30T12:38:12.813Z,3296
2017-10-30T12:39:12.153Z,3332
2017-10-30T12:40:12.770Z,3376
2017-10-30T12:41:12.753Z,3424
2017-10-30T12:42:12.723Z,3256
2017-10-30T12:43:12.593Z,3248
2017-10-30T12:44:12.685Z,3132
2017-10-30T12:45:12.636Z,3096
2017-10-30T12:46:12.305Z,3088
2017-10-30T12:47:12.607Z,3156
2017-10-30T12:48:12.574Z,3268
2017-10-30T12:49:12.551Z,3932
2017-10-30T12:50:12.513Z,4808
2017-10-30T12:51:12.517Z,4956
2017-10-30T12:52:12.461Z,4832
2017-10-30T12:53:12.465Z,5144
2017-10-30T12:54:12.434Z,4720
2017-10-30T12:55:12.417Z,5540
2017-10-30T12:56:12.081Z,6256
2017-10-30T12:57:12.051Z,6548
2017-10-30T12:58:12.365Z,6380
2017-10-30T12:59:12.017Z,5752
2017-10-30T13:00:11.983Z,4640
2017-10-30T13:01:11.946Z,4060
2017-10-30T13:02:11.936Z,3924
2017-10-30T13:03:11.895Z,3812
2017-10-30T13:04:11.917Z,3580
2017-10-30T13:05:12.180Z,3312
2017-10-30T13:06:12.258Z,3160
2017-10-30T13:07:11.804Z,3144
2017-10-30T13:08:12.133Z,3160
2017-10-30T13:09:12.070Z,3232
2017-10-30T13:10:12.084Z,3252
2017-10-30T13:11:12.049Z,3176
2017-10-30T13:12:12.024Z,3004
2017-10-30T13:13:11.996Z,2912
2017-10-30T13:14:12.016Z,2864
2017-10-30T13:15:11.941Z,2840
2017-10-30T13:16:11.934Z,2828
2017-10-30T13:17:11.590Z,2836
2017-10-30T13:18:11.931Z,2832
2017-10-30T13:19:11.543Z,2832
2017-10-30T13:20:11.513Z,2880
2017-10-30T13:21:11.472Z,2916
2017-10-30T13:22:11.788Z,3128
2017-10-30T13:23:11.749Z,3168
2017-10-30T13:24:11.753Z,3084
2017-10-30T13:25:11.711Z,3212
2017-10-30T13:26:11.695Z,3480
2017-10-30T13:27:11.662Z,3808
2017-10-30T13:28:11.634Z,4056
2017-10-30T13:29:12.054Z,4140
2017-10-30T13:30:11.257Z,4024
2017-10-30T13:31:11.902Z,4056
2017-10-30T13:32:11.525Z,3788
2017-10-30T13:33:11.185Z,3456
2017-10-30T13:34:11.487Z,3216
2017-10-30T13:35:11.148Z,3076
2017-10-30T13:36:11.435Z,2928
2017-10-30T13:37:11.419Z,2912
2017-10-30T13:38:11.385Z,2980
2017-10-30T13:39:11.366Z,3128
2017-10-30T13:40:11.349Z,3088
2017-10-30T13:41:11.005Z,3256
2017-10-30T13:42:10.969Z,3224
2017-10-30T13:43:11.285Z,3328
2017-10-30T13:44:11.249Z,3804
2017-10-30T13:45:10.927Z,3580
2017-10-30T13:46:11.197Z,3260
2017-10-30T13:47:11.183Z,3364
2017-10-30T13:48:11.172Z,3256
2017-10-30T13:49:11.133Z,3456
2017-10-30T13:50:11.128Z,3604
2017-10-30T13:51:11.086Z,3656
2017-10-30T13:52:11.063Z,3540
2017-10-30T13:53:10.727Z,3396
2017-10-30T13:54:11.023Z,3316